Time;durP1;ratioP1;P1;durP2;ratioP2;P2;SDS_P1;SDS_P2;PMS_P1;PMS_P2;Temp;Humidity;BMP_temperature;BMP_pressure;BME280_temperature;BME280_humidity;BME280_pressure;Samples;Min_cycle;Max_cycle;Signal;HPM_P1;HPM_P2
2022/11/27 00:01:30;;;;;;;9.00;1.35;;;10.60;99.90;;;;;;5038189;28;20041;-80
2022/11/27 00:03:58;;;;;;;9.23;1.40;;;10.60;99.90;;;;;;5036873;28;20479;-79
2022/11/27 00:06:27;;;;;;;8.57;1.63;;;11.10;99.90;;;;;;5037868;28;20060;-80
2022/11/27 00:08:56;;;;;;;12.05;1.60;;;10.60;99.90;;;;;;5038064;28;20049;-78
2022/11/27 00:11:25;;;;;;;11.93;1.83;;;10.50;99.90;;;;;;5035851;28;20060;-79
2022/11/27 00:13:53;;;;;;;10.90;1.58;;;10.50;99.90;;;;;;5037952;28;20124;-77
2022/11/27 00:16:22;;;;;;;5.90;1.30;;;10.50;99.90;;;;;;5036776;28;20049;-81
2022/11/27 00:18:50;;;;;;;12.50;1.52;;;10.50;99.90;;;;;;5038263;28;20076;-79
2022/11/27 00:21:30;;;;;;;7.32;1.17;;;10.50;99.90;;;;;;5037699;28;20041;-79
2022/11/27 00:23:59;;;;;;;9.55;1.67;;;10.50;99.90;;;;;;5036487;28;20060;-78
2022/11/27 00:26:29;;;;;;;9.27;1.70;;;8.70;99.90;;;;;;5037820;28;20460;-80
2022/11/27 00:29:04;;;;;;;10.57;1.42;;;10.20;99.90;;;;;;5037767;28;20045;-79
2022/11/27 00:31:33;;;;;;;5.95;1.30;;;11.10;99.90;;;;;;5036820;28;20050;-80
2022/11/27 00:34:02;;;;;;;8.98;1.70;;;10.50;99.90;;;;;;5037406;28;20046;-80
2022/11/27 00:36:32;;;;;;;7.10;1.40;;;10.40;99.90;;;;;;5036561;28;20045;-81
2022/11/27 00:39:00;;;;;;;10.52;1.73;;;10.40;99.90;;;;;;5021772;28;20476;-79
2022/11/27 00:41:29;;;;;;;10.27;1.60;;;10.40;99.90;;;;;;4984151;28;20487;-80
2022/11/27 00:43:57;;;;;;;10.50;1.38;;;10.40;99.90;;;;;;5016264;28;20045;-81
2022/11/27 00:46:26;;;;;;;;;;;10.40;99.90;;;;;;5017845;28;20049;-79
2022/11/27 00:49:00;;;;;;;9.52;1.52;;;10.30;99.90;;;;;;5017382;28;19921;-79
2022/11/27 00:51:28;;;;;;;10.95;1.50;;;10.90;99.90;;;;;;5016409;28;20054;-81
2022/11/27 00:53:57;;;;;;;11.68;1.50;;;10.40;99.90;;;;;;5017081;28;20061;-82
2022/11/27 00:56:27;;;;;;;;;;;10.30;99.90;;;;;;4999795;28;20049;-80
2022/11/27 00:58:55;;;;;;;10.25;1.80;;;10.20;99.90;;;;;;4999920;28;19932;-79
2022/11/27 01:01:26;;;;;;;12.77;1.48;;;10.20;99.90;;;;;;5017530;28;20046;-80
2022/11/27 01:03:56;;;;;;;9.95;1.58;;;10.20;99.90;;;;;;5014854;28;20052;-79
2022/11/27 01:06:24;;;;;;;10.73;1.50;;;10.20;99.90;;;;;;5017194;28;20057;-77
2022/11/27 01:08:53;;;;;;;7.05;1.10;;;10.40;99.90;;;;;;5016919;28;20049;-82
2022/11/27 01:11:26;;;;;;;9.32;1.48;;;11.20;99.90;;;;;;4998830;28;20045;-79
2022/11/27 01:13:56;;;;;;;12.15;1.52;;;10.10;99.90;;;;;;5016970;28;20046;-81
2022/11/27 01:16:26;;;;;;;8.55;1.60;;;11.00;99.90;;;;;;5016002;28;20046;-81
2022/11/27 01:18:56;;;;;;;9.00;1.60;;;10.10;99.90;;;;;;5016738;28;20050;-79
2022/11/27 01:21:26;;;;;;;8.75;1.42;;;10.10;99.90;;;;;;5017494;28;20122;-79
2022/11/27 01:23:54;;;;;;;11.48;1.40;;;10.10;99.90;;;;;;5015885;28;20486;-79
2022/11/27 01:26:22;;;;;;;14.00;1.90;;;10.30;99.90;;;;;;5016761;28;20041;-80
2022/11/27 01:28:53;;;;;;;;;;;10.10;99.90;;;;;;5017061;28;20042;-80
2022/11/27 01:31:23;;;;;;;9.70;1.60;;;10.10;99.90;;;;;;4998356;28;20296;-78
2022/11/27 01:33:54;;;;;;;11.23;1.40;;;10.10;99.90;;;;;;5016662;28;20045;-81
2022/11/27 01:36:21;;;;;;;11.35;1.40;;;10.40;99.90;;;;;;4998500;28;20065;-79
2022/11/27 01:38:49;;;;;;;6.97;1.60;;;11.00;99.90;;;;;;5016241;28;20064;-80
2022/11/27 01:41:18;;;;;;;8.75;1.83;;;10.10;99.90;;;;;;4999113;28;20050;-82
2022/11/27 01:44:23;;;;;;;7.43;1.38;;;10.10;99.90;;;;;;5015129;28;20038;-81
2022/11/27 01:46:57;;;;;;;5.93;1.45;;;10.10;99.90;;;;;;5016117;28;20049;-78
2022/11/27 01:49:27;;;;;;;9.73;1.60;;;10.10;99.90;;;;;;5015080;28;20053;-80
2022/11/27 01:51:59;;;;;;;7.43;1.52;;;10.30;99.90;;;;;;4998941;28;20050;-79
2022/11/27 01:54:38;;;;;;;8.18;1.33;;;10.20;99.90;;;;;;5016297;28;20045;-82
2022/11/27 01:57:18;;;;;;;8.60;1.90;;;10.10;99.90;;;;;;5014989;28;20049;-79
2022/11/27 01:59:47;;;;;;;13.88;2.15;;;11.00;99.90;;;;;;5016171;28;20050;-82
2022/11/27 02:02:15;;;;;;;7.90;1.70;;;10.70;99.90;;;;;;5015916;28;20038;-82
2022/11/27 02:04:42;;;;;;;11.30;2.00;;;10.20;99.90;;;;;;4997651;28;20076;-80
2022/11/27 02:07:10;;;;;;;8.05;1.95;;;10.50;99.90;;;;;;5016345;28;20060;-77
2022/11/27 02:09:39;;;;;;;11.93;1.80;;;10.60;99.90;;;;;;5015347;28;20057;-83
2022/11/27 02:12:28;;;;;;;10.02;1.73;;;10.30;99.90;;;;;;5015740;28;20058;-83
2022/11/27 02:15:30;;;;;;;5.97;1.63;;;10.20;99.90;;;;;;4998444;28;20046;-81
2022/11/27 02:18:15;;;;;;;12.10;2.05;;;10.20;99.90;;;;;;4983547;28;20058;-82
2022/11/27 02:21:06;;;;;;;15.23;1.80;;;10.20;99.90;;;;;;5015981;28;20046;-81
2022/11/27 02:23:52;;;;;;;12.00;1.80;;;10.30;99.90;;;;;;4997495;28;20058;-83
2022/11/27 02:26:48;;;;;;;13.57;1.88;;;10.30;99.90;;;;;;5015991;28;20050;-81
2022/11/27 02:29:26;;;;;;;9.88;1.60;;;10.30;99.90;;;;;;4997400;28;20045;-82
2022/11/27 02:32:01;;;;;;;17.07;1.70;;;10.50;99.90;;;;;;5015562;28;20057;-81
2022/11/27 02:34:51;;;;;;;11.02;1.50;;;10.80;99.90;;;;;;4998277;28;20275;-83
2022/11/27 02:37:26;;;;;;;10.20;1.60;;;10.30;99.90;;;;;;4997087;28;20048;-81
2022/11/27 02:40:10;;;;;;;12.68;1.90;;;10.30;99.90;;;;;;4998352;28;20046;-81
2022/11/27 02:42:50;;;;;;;8.48;1.48;;;10.30;99.90;;;;;;5014898;28;20042;-82
2022/11/27 02:45:27;;;;;;;11.73;1.75;;;10.40;99.90;;;;;;4998450;28;20065;-82
2022/11/27 02:47:55;;;;;;;8.13;1.55;;;10.50;99.90;;;;;;5015305;28;20061;-83
2022/11/27 02:50:25;;;;;;;11.55;1.50;;;10.40;99.90;;;;;;4996968;28;20400;-80
2022/11/27 02:53:00;;;;;;;8.93;1.63;;;10.40;99.90;;;;;;4998207;28;20057;-83
2022/11/27 02:55:32;;;;;;;9.90;1.30;;;10.40;99.90;;;;;;5015316;28;20330;-79
2022/11/27 02:58:02;;;;;;;9.98;1.52;;;10.40;99.90;;;;;;4996951;28;20495;-81
2022/11/27 03:00:31;;;;;;;9.32;1.55;;;11.00;99.90;;;;;;5015382;28;20368;-79
2022/11/27 03:03:04;;;;;;;6.25;1.48;;;10.50;99.90;;;;;;5013833;28;20050;-81
2022/11/27 03:05:36;;;;;;;8.45;1.27;;;10.50;99.90;;;;;;5015310;28;20050;-81
2022/11/27 03:08:34;;;;;;;9.18;1.63;;;11.80;99.90;;;;;;5015322;28;20050;-83
2022/11/27 03:11:11;;;;;;;8.73;1.35;;;10.60;99.90;;;;;;5014015;28;20384;-78
2022/11/27 03:13:47;;;;;;;5.22;1.05;;;10.50;99.90;;;;;;5014934;28;20065;-80
2022/11/27 03:16:30;;;;;;;7.53;1.10;;;11.80;99.90;;;;;;4980606;28;20050;-79
2022/11/27 03:19:10;;;;;;;10.50;1.23;;;10.60;99.90;;;;;;5015053;28;20053;-78
2022/11/27 03:21:51;;;;;;;8.23;1.10;;;10.60;99.90;;;;;;5014765;28;20053;-80
2022/11/27 03:24:19;;;;;;;10.13;1.10;;;10.60;99.90;;;;;;5013822;28;20110;-80
2022/11/27 03:26:47;;;;;;;7.40;1.23;;;10.60;99.90;;;;;;5016936;28;20060;-79
2022/11/27 03:29:30;;;;;;;7.38;1.20;;;10.70;99.90;;;;;;5017935;28;20062;-78
2022/11/27 03:31:58;;;;;;;5.75;1.08;;;10.70;99.90;;;;;;5001556;28;20372;-82
2022/11/27 03:34:28;;;;;;;5.40;1.08;;;10.70;99.90;;;;;;5002150;28;20112;-80
2022/11/27 03:36:56;;;;;;;9.25;1.08;;;10.70;99.90;;;;;;5018110;28;20057;-78
2022/11/27 03:39:24;;;;;;;5.90;1.00;;;11.10;99.90;;;;;;5018729;28;20057;-79
2022/11/27 03:42:13;;;;;;;7.45;1.10;;;10.80;99.90;;;;;;5018867;28;20042;-79
2022/11/27 03:44:45;;;;;;;6.00;0.90;;;10.80;99.90;;;;;;5017560;28;20052;-81
2022/11/27 03:47:24;;;;;;;5.20;0.80;;;10.80;99.90;;;;;;5019216;28;20069;-79
2022/11/27 03:50:18;;;;;;;9.98;1.10;;;10.80;99.90;;;;;;5017848;28;20049;-80
2022/11/27 03:53:08;;;;;;;8.80;1.10;;;10.80;99.90;;;;;;5018739;28;20050;-81
2022/11/27 03:55:49;;;;;;;3.40;0.82;;;10.80;99.90;;;;;;5001339;28;20052;-77
2022/11/27 03:58:32;;;;;;;6.60;1.10;;;10.90;99.90;;;;;;5001447;28;20037;-81
2022/11/27 04:01:02;;;;;;;7.00;0.95;;;10.90;99.90;;;;;;5018369;28;20061;-79
2022/11/27 04:03:30;;;;;;;6.55;1.02;;;10.90;99.90;;;;;;5017656;28;20042;-78
2022/11/27 04:05:58;;;;;;;;;;;11.20;99.90;;;;;;5001872;28;20050;-80
2022/11/27 04:08:25;;;;;;;6.30;1.17;;;10.90;99.90;;;;;;5018430;28;19932;-80
2022/11/27 04:10:53;;;;;;;4.90;0.70;;;11.00;99.90;;;;;;4999999;28;20476;-82
2022/11/27 04:13:20;;;;;;;4.22;1.02;;;11.00;99.90;;;;;;5018322;28;20057;-80
2022/11/27 04:15:48;;;;;;;6.28;1.10;;;11.00;99.90;;;;;;5017176;28;20045;-77
2022/11/27 04:18:15;;;;;;;5.80;1.20;;;10.90;99.90;;;;;;5018116;28;20057;-80
2022/11/27 04:20:43;;;;;;;5.90;1.23;;;11.00;99.90;;;;;;5001087;28;20053;-81
2022/11/27 04:23:10;;;;;;;8.35;0.90;;;11.10;99.90;;;;;;5017234;28;20372;-80
2022/11/27 04:25:38;;;;;;;4.53;0.80;;;11.00;99.90;;;;;;5000963;28;20050;-78
2022/11/27 04:28:05;;;;;;;3.47;0.70;;;11.00;99.90;;;;;;5017964;28;20056;-79
2022/11/27 04:30:33;;;;;;;4.28;0.95;;;11.00;99.90;;;;;;5016606;28;20054;-79
2022/11/27 04:33:00;;;;;;;9.10;0.98;;;11.10;99.90;;;;;;5000459;28;20046;-78
2022/11/27 04:35:28;;;;;;;7.13;1.08;;;11.30;99.90;;;;;;5018000;28;20061;-78
2022/11/27 04:37:56;;;;;;;3.83;0.80;;;11.10;99.90;;;;;;5016594;28;20377;-82
2022/11/27 04:40:24;;;;;;;4.82;0.70;;;11.10;99.90;;;;;;5017518;28;20287;-78
2022/11/27 04:42:51;;;;;;;8.43;0.93;;;11.10;99.90;;;;;;4999395;28;20037;-80
2022/11/27 04:45:19;;;;;;;4.00;0.90;;;11.20;99.90;;;;;;5017760;28;20360;-81
2022/11/27 04:47:47;;;;;;;4.75;0.70;;;11.10;99.90;;;;;;5017498;28;20050;-80
2022/11/27 04:50:14;;;;;;;4.93;1.00;;;11.30;99.90;;;;;;5016379;28;20049;-77
2022/11/27 04:52:42;;;;;;;4.95;0.82;;;11.10;99.90;;;;;;5017384;28;20042;-80
2022/11/27 04:55:09;;;;;;;8.40;1.00;;;11.10;99.90;;;;;;5017279;28;20038;-78
2022/11/27 04:57:37;;;;;;;3.53;0.63;;;11.20;99.90;;;;;;5016019;28;20057;-80
2022/11/27 05:00:05;;;;;;;2.70;0.70;;;11.20;99.90;;;;;;5017836;28;20038;-81
2022/11/27 05:02:33;;;;;;;;;;;11.20;99.90;;;;;;5016529;28;20282;-81
2022/11/27 05:05:00;;;;;;;6.45;0.80;;;11.20;99.90;;;;;;4983717;28;19921;-80
2022/11/27 05:07:27;;;;;;;6.15;0.73;;;11.40;99.90;;;;;;5000193;28;20056;-81
2022/11/27 05:09:55;;;;;;;4.70;0.68;;;11.20;99.90;;;;;;5015925;28;20052;-81
2022/11/27 05:12:23;;;;;;;5.53;0.82;;;11.20;99.90;;;;;;4999694;28;20050;-80
2022/11/27 05:14:50;;;;;;;4.50;0.80;;;11.20;99.90;;;;;;5017427;28;20060;-80
2022/11/27 05:17:17;;;;;;;5.40;0.70;;;11.20;99.90;;;;;;4998921;28;20481;-79
2022/11/27 05:19:45;;;;;;;7.18;0.82;;;11.20;99.90;;;;;;5017187;28;20457;-81
2022/11/27 05:22:12;;;;;;;7.20;0.98;;;11.40;99.90;;;;;;4999846;28;20069;-78
2022/11/27 05:24:40;;;;;;;5.07;0.90;;;11.30;99.90;;;;;;4998263;28;20373;-77
2022/11/27 05:27:07;;;;;;;8.93;1.10;;;11.30;99.90;;;;;;5016860;28;20053;-79
2022/11/27 05:29:35;;;;;;;4.57;0.88;;;11.30;99.90;;;;;;5015350;28;20349;-80
2022/11/27 05:32:03;;;;;;;5.75;1.00;;;11.40;99.90;;;;;;5016680;28;20042;-81
2022/11/27 05:34:30;;;;;;;4.57;0.85;;;11.30;99.90;;;;;;4999579;28;20041;-79
2022/11/27 05:36:58;;;;;;;5.93;0.93;;;11.30;99.90;;;;;;5015418;28;20049;-76
2022/11/27 05:39:25;;;;;;;4.63;0.90;;;11.40;99.90;;;;;;5016453;28;20054;-79
2022/11/27 05:41:52;;;;;;;4.95;0.73;;;11.30;99.90;;;;;;4999750;28;20057;-79
2022/11/27 05:44:20;;;;;;;3.47;0.82;;;12.20;99.90;;;;;;4997998;28;20057;-78
2022/11/27 05:46:47;;;;;;;4.88;0.80;;;11.30;99.90;;;;;;4999302;28;20337;-80
2022/11/27 05:49:15;;;;;;;4.72;0.93;;;11.30;99.90;;;;;;5014424;28;20050;-82
2022/11/27 05:51:43;;;;;;;7.05;0.80;;;11.90;99.90;;;;;;5016117;28;20062;-79
2022/11/27 05:54:18;;;;;;;5.13;0.88;;;11.30;99.90;;;;;;5016401;28;20053;-81
2022/11/27 05:56:45;;;;;;;4.50;0.77;;;11.90;99.90;;;;;;5014995;28;20065;-81
2022/11/27 05:59:13;;;;;;;6.70;0.60;;;11.30;99.90;;;;;;5015882;28;20048;-79
2022/11/27 06:01:41;;;;;;;4.78;0.70;;;11.40;99.90;;;;;;5016299;28;20042;-80
2022/11/27 06:04:09;;;;;;;2.47;0.50;;;11.30;99.90;;;;;;5014901;28;20367;-80
2022/11/27 06:06:36;;;;;;;1.73;0.50;;;11.40;99.90;;;;;;5016233;28;20060;-80
2022/11/27 06:09:04;;;;;;;9.48;0.60;;;11.40;99.90;;;;;;5015818;28;20046;-77
2022/11/27 06:11:41;;;;;;;2.08;0.50;;;11.60;99.90;;;;;;4999018;28;20480;-81
2022/11/27 06:14:09;;;;;;;1.33;0.40;;;11.40;99.90;;;;;;5015793;28;20057;-79
2022/11/27 06:16:37;;;;;;;3.85;0.50;;;11.40;99.90;;;;;;4981419;28;20060;-81
2022/11/27 06:19:05;;;;;;;1.13;0.40;;;11.50;99.90;;;;;;5015803;28;20046;-76
2022/11/27 06:21:32;;;;;;;1.77;0.50;;;11.50;99.90;;;;;;5015614;28;20053;-78
2022/11/27 06:24:00;;;;;;;1.90;0.50;;;11.50;99.90;;;;;;4997770;28;20057;-79
2022/11/27 06:26:29;;;;;;;2.10;0.65;;;11.50;99.90;;;;;;5015183;28;20383;-79
2022/11/27 06:28:59;;;;;;;4.57;0.70;;;11.50;99.90;;;;;;5015741;28;20057;-78
2022/11/27 06:31:29;;;;;;;2.00;0.70;;;11.60;99.90;;;;;;4997212;28;20054;-81
2022/11/27 06:33:58;;;;;;;3.33;0.60;;;11.50;99.90;;;;;;5015733;28;20046;-77
2022/11/27 06:36:34;;;;;;;3.63;0.60;;;11.50;99.90;;;;;;4997328;28;20468;-81
2022/11/27 06:39:04;;;;;;;2.72;0.75;;;11.50;99.90;;;;;;5015488;28;20046;-76
2022/11/27 06:41:32;;;;;;;2.65;0.63;;;11.70;99.90;;;;;;5015418;28;20048;-81
2022/11/27 06:44:00;;;;;;;2.47;0.70;;;11.50;99.90;;;;;;4997328;28;20042;-80
2022/11/27 06:46:29;;;;;;;6.50;0.60;;;11.50;99.90;;;;;;5015439;28;20046;-81
2022/11/27 06:48:57;;;;;;;2.70;0.80;;;11.60;99.90;;;;;;5015281;28;20053;-80
2022/11/27 06:51:27;;;;;;;2.65;0.70;;;11.50;99.90;;;;;;5014297;28;20038;-79
2022/11/27 06:53:55;;;;;;;1.70;0.60;;;11.50;99.90;;;;;;5015711;28;20046;-81
2022/11/27 06:56:26;;;;;;;5.38;0.68;;;11.50;99.90;;;;;;5014575;28;20053;-78
2022/11/27 06:58:55;;;;;;;5.68;0.80;;;11.50;99.90;;;;;;4998207;28;20046;-80
2022/11/27 07:01:25;;;;;;;2.47;0.60;;;11.50;99.90;;;;;;4997952;28;20049;-77
2022/11/27 07:03:53;;;;;;;2.88;0.73;;;11.50;99.90;;;;;;5013926;28;20048;-79
2022/11/27 07:06:22;;;;;;;4.28;0.82;;;11.50;99.90;;;;;;4997900;28;20041;-78
2022/11/27 07:08:51;;;;;;;2.90;0.70;;;11.50;99.90;;;;;;4997845;28;20050;-80
2022/11/27 07:11:21;;;;;;;2.45;0.70;;;11.50;99.90;;;;;;4996751;28;20042;-79
2022/11/27 07:13:50;;;;;;;4.80;0.73;;;11.60;99.90;;;;;;5015292;28;20057;-80
2022/11/27 07:16:17;;;;;;;5.57;0.85;;;11.50;99.90;;;;;;4996782;28;20054;-81
2022/11/27 07:18:52;;;;;;;4.10;0.75;;;11.50;99.90;;;;;;5014970;28;20046;-78
2022/11/27 07:21:20;;;;;;;3.25;0.80;;;11.50;99.90;;;;;;4997652;28;20038;-78
2022/11/27 07:23:48;;;;;;;4.18;0.80;;;11.60;99.90;;;;;;5013716;28;20046;-79
2022/11/27 07:26:18;;;;;;;3.45;0.80;;;11.50;99.90;;;;;;5015361;28;20053;-81
2022/11/27 07:31:46;;;;;;;5.28;0.80;;;11.50;99.90;;;;;;5014611;28;20045;-81
2022/11/27 07:34:14;;;;;;;4.95;0.75;;;11.60;99.90;;;;;;5014630;28;20050;-82
2022/11/27 07:36:48;;;;;;;3.65;0.65;;;11.50;99.90;;;;;;5013956;28;20053;-79
2022/11/27 07:39:16;;;;;;;5.68;0.80;;;11.50;99.90;;;;;;5014586;28;20050;-80
2022/11/27 07:42:00;;;;;;;6.18;1.20;;;11.60;99.90;;;;;;4967480;28;20061;-80
2022/11/27 07:44:47;;;;;;;6.63;1.20;;;11.60;99.90;;;;;;5013454;28;20038;-80
2022/11/27 07:47:15;;;;;;;5.97;1.30;;;11.60;99.90;;;;;;4997751;28;20054;-80
2022/11/27 07:49:42;;;;;;;4.82;1.13;;;11.60;99.90;;;;;;5013691;28;20049;-79
2022/11/27 07:52:10;;;;;;;6.38;1.98;;;11.60;99.90;;;;;;5014648;28;20045;-80
2022/11/27 07:54:38;;;;;;;5.10;1.38;;;11.60;99.90;;;;;;5014619;28;20050;-80
2022/11/27 07:57:06;;;;;;;8.07;1.60;;;12.00;99.90;;;;;;5013776;28;20046;-76
2022/11/27 07:59:36;;;;;;;5.30;1.58;;;11.60;99.90;;;;;;5014639;28;20042;-79
2022/11/27 08:02:06;;;;;;;4.70;1.30;;;11.60;99.90;;;;;;5014261;28;20050;-78
2022/11/27 08:04:33;;;;;;;2.30;1.05;;;11.60;99.90;;;;;;4995990;28;20041;-79
2022/11/27 08:07:01;;;;;;;4.25;1.08;;;11.60;99.90;;;;;;4997370;28;20053;-79
2022/11/27 08:09:29;;;;;;;5.53;1.10;;;11.80;99.90;;;;;;4996693;28;20053;-75
2022/11/27 08:11:56;;;;;;;3.88;0.90;;;11.70;99.90;;;;;;4997553;28;20046;-77
2022/11/27 08:14:24;;;;;;;3.25;0.80;;;11.70;99.90;;;;;;5018105;28;20065;-78
2022/11/27 08:16:52;;;;;;;6.35;1.30;;;10.10;99.90;;;;;;5017394;28;20496;-77
2022/11/27 08:19:20;;;;;;;;;;;11.70;99.90;;;;;;5001399;28;20053;-78
2022/11/27 08:21:47;;;;;;;6.22;1.00;;;11.60;99.90;;;;;;5018092;28;19936;-77
2022/11/27 08:24:15;;;;;;;4.53;0.98;;;11.80;99.90;;;;;;5000028;28;20473;-78
2022/11/27 08:26:43;;;;;;;6.05;1.17;;;11.70;99.90;;;;;;5001445;28;20049;-77
2022/11/27 08:29:11;;;;;;;5.05;1.20;;;11.70;99.90;;;;;;5016871;28;20054;-81
2022/11/27 08:31:39;;;;;;;4.40;1.23;;;11.70;99.90;;;;;;5018301;28;20057;-79
2022/11/27 08:34:07;;;;;;;3.55;1.73;;;11.70;99.90;;;;;;5017741;28;20413;-76
2022/11/27 08:36:35;;;;;;;4.63;1.95;;;12.20;99.90;;;;;;5017224;28;20049;-79
2022/11/27 08:39:03;;;;;;;14.25;2.08;;;11.80;99.90;;;;;;5017537;28;20050;-77
2022/11/27 08:41:30;;;;;;;6.50;2.28;;;11.80;99.90;;;;;;5017975;28;20065;-80
2022/11/27 08:43:58;;;;;;;7.22;2.70;;;12.20;99.90;;;;;;5016750;28;20054;-79
2022/11/27 08:46:26;;;;;;;6.28;2.90;;;11.90;99.90;;;;;;5000576;28;20050;-80
2022/11/27 08:48:53;;;;;;;8.10;2.60;;;11.90;99.90;;;;;;5017635;28;20050;-79
2022/11/27 08:51:21;;;;;;;6.45;2.30;;;11.80;99.90;;;;;;5016581;28;20369;-79
2022/11/27 08:53:51;;;;;;;5.55;2.50;;;11.90;99.90;;;;;;5000441;28;20065;-81
2022/11/27 08:56:24;;;;;;;14.13;3.70;;;11.80;99.90;;;;;;4999093;28;20050;-80
2022/11/27 08:58:52;;;;;;;11.02;3.05;;;11.90;99.90;;;;;;5017258;28;20053;-81
2022/11/27 09:01:25;;;;;;;6.25;2.33;;;12.00;99.90;;;;;;5000054;28;20053;-80
2022/11/27 09:03:53;;;;;;;9.93;2.47;;;11.90;99.90;;;;;;4999009;28;20045;-79
2022/11/27 09:06:23;;;;;;;6.30;1.90;;;11.90;99.90;;;;;;4984134;28;20061;-81
2022/11/27 09:08:54;;;;;;;11.93;2.70;;;12.70;99.90;;;;;;5016936;28;20500;-80
2022/11/27 09:11:22;;;;;;;13.30;3.30;;;12.40;99.90;;;;;;4998868;28;20053;-79
2022/11/27 09:14:01;;;;;;;5.30;1.85;;;12.00;99.90;;;;;;5000840;28;20469;-80
2022/11/27 09:16:29;;;;;;;8.30;1.80;;;11.90;99.90;;;;;;4999273;28;20457;-79
2022/11/27 09:18:57;;;;;;;4.97;1.90;;;11.90;99.90;;;;;;5016849;28;20045;-79
2022/11/27 09:21:27;;;;;;;7.03;1.73;;;11.90;99.90;;;;;;4999961;28;20045;-80
2022/11/27 09:23:56;;;;;;;3.42;1.52;;;12.00;99.90;;;;;;5015131;28;20476;-81
2022/11/27 09:26:25;;;;;;;5.93;1.60;;;12.80;99.90;;;;;;5019813;28;20504;-83
2022/11/27 09:28:54;;;;;;;4.60;1.80;;;12.50;99.90;;;;;;5016640;28;20041;-79
2022/11/27 09:31:25;;;;;;;5.90;1.90;;;12.00;99.90;;;;;;5016089;28;20064;-80
2022/11/27 09:33:56;;;;;;;7.75;1.85;;;12.90;99.90;;;;;;4999612;28;20049;-80
2022/11/27 09:36:24;;;;;;;4.22;1.80;;;12.90;99.90;;;;;;4982304;28;20066;-83
2022/11/27 09:38:53;;;;;;;5.03;1.40;;;13.30;99.90;;;;;;5008010;28;20057;-80
2022/11/27 09:41:55;;;;;;;6.43;1.48;;;12.10;99.90;;;;;;5034824;28;20050;-80
2022/11/27 09:44:45;;;;;;;5.00;1.13;;;12.10;99.90;;;;;;5034197;28;20377;-78
2022/11/27 09:47:25;;;;;;;7.57;1.00;;;12.30;99.90;;;;;;5035782;28;20045;-81
2022/11/27 09:50:02;;;;;;;7.20;0.97;;;12.30;99.90;;;;;;5033911;28;20057;-80
2022/11/27 09:52:51;;;;;;;2.22;0.80;;;12.30;99.90;;;;;;5050723;28;20582;-78
2022/11/27 09:55:42;;;;;;;7.75;1.15;;;12.20;99.90;;;;;;5056093;28;20053;-81
2022/11/27 09:58:22;;;;;;;7.50;1.55;;;12.20;99.90;;;;;;5054995;28;20470;-79
2022/11/27 10:00:50;;;;;;;4.72;1.45;;;12.30;99.90;;;;;;5056176;28;20049;-82
2022/11/27 10:03:23;;;;;;;4.50;1.63;;;12.20;99.90;;;;;;5054316;28;20372;-80
2022/11/27 10:06:24;;;;;;;5.20;1.55;;;12.00;99.90;;;;;;5054726;28;20048;-81
2022/11/27 10:09:02;;;;;;;4.93;1.50;;;12.70;99.90;;;;;;4972769;28;20045;-79
2022/11/27 10:11:55;;;;;;;9.18;1.70;;;12.40;99.90;;;;;;5053426;28;20064;-78
2022/11/27 10:14:30;;;;;;;5.90;1.77;;;12.40;99.90;;;;;;5038024;28;20041;-80
2022/11/27 10:17:15;;;;;;;7.40;2.25;;;12.40;99.90;;;;;;5054071;28;20049;-79
2022/11/27 10:20:01;;;;;;;4.43;1.50;;;12.50;99.90;;;;;;5055112;28;20467;-80
2022/11/27 10:22:47;;;;;;;5.10;1.70;;;12.50;99.90;;;;;;5053414;28;20045;-78
2022/11/27 10:25:37;;;;;;;6.47;2.08;;;12.50;99.90;;;;;;5055220;28;20376;-79
2022/11/27 10:28:57;;;;;;;4.60;1.70;;;12.50;99.90;;;;;;5055401;28;20045;-80
2022/11/27 10:31:52;;;;;;;9.48;2.15;;;12.50;99.90;;;;;;4983318;28;20381;-80
2022/11/27 10:34:48;;;;;;;8.77;2.20;;;12.50;99.90;;;;;;5034628;28;20050;-81
2022/11/27 10:37:42;;;;;;;6.55;2.20;;;12.50;99.90;;;;;;5032747;28;20053;-79
2022/11/27 10:40:10;;;;;;;8.70;2.05;;;12.60;99.90;;;;;;4998491;28;20046;-79
2022/11/27 10:42:42;;;;;;;4.40;1.80;;;12.60;99.90;;;;;;4997170;28;20057;-81
2022/11/27 10:45:24;;;;;;;5.13;1.73;;;12.70;99.90;;;;;;5015210;28;20041;-78
2022/11/27 10:47:52;;;;;;;4.63;1.60;;;12.80;99.90;;;;;;4982520;28;20061;-81
2022/11/27 10:50:21;;;;;;;4.22;1.55;;;12.70;99.90;;;;;;5014151;28;20053;-80
2022/11/27 10:52:54;;;;;;;6.72;2.20;;;12.80;99.90;;;;;;4997720;28;20061;-81
2022/11/27 10:56:00;;;;;;;5.97;1.73;;;12.80;99.90;;;;;;4998062;28;20465;-80
2022/11/27 10:58:36;;;;;;;8.02;1.90;;;12.80;99.90;;;;;;4997887;28;20057;-83
2022/11/27 11:01:06;;;;;;;11.68;1.67;;;12.90;99.90;;;;;;5015495;28;20046;-80
2022/11/27 11:03:35;;;;;;;9.13;1.80;;;12.90;99.90;;;;;;5014253;28;20045;-81
2022/11/27 11:06:17;;;;;;;9.85;1.83;;;13.00;99.90;;;;;;4998253;28;20050;-80
2022/11/27 11:09:04;;;;;;;8.63;1.85;;;11.30;99.90;;;;;;5015534;28;20358;-81
2022/11/27 11:11:32;;;;;;;7.15;1.90;;;13.20;99.90;;;;;;5014256;28;20037;-81
2022/11/27 11:14:01;;;;;;;9.43;1.77;;;13.10;99.90;;;;;;5015092;28;20045;-82
2022/11/27 11:16:29;;;;;;;9.10;2.17;;;13.30;99.90;;;;;;4996742;28;20073;-83
2022/11/27 11:19:10;;;;;;;6.65;1.70;;;13.10;99.90;;;;;;5015327;28;20050;-79
2022/11/27 11:21:41;;;;;;;8.80;1.80;;;13.10;99.90;;;;;;4998035;28;20065;-79
2022/11/27 11:24:17;;;;;;;10.27;1.50;;;13.10;99.90;;;;;;5014114;28;20046;-82
2022/11/27 11:27:20;;;;;;;8.33;1.63;;;13.40;99.90;;;;;;5014962;28;20057;-83
2022/11/27 11:29:59;;;;;;;9.73;1.92;;;13.10;99.90;;;;;;4972445;28;20057;-81
2022/11/27 11:32:36;;;;;;;13.48;2.30;;;13.90;99.90;;;;;;5015048;28;20046;-81
2022/11/27 11:35:23;;;;;;;6.38;1.60;;;13.40;99.90;;;;;;5014768;28;20046;-82
2022/11/27 11:37:55;;;;;;;12.30;2.03;;;13.30;99.90;;;;;;5013614;28;20046;-84
2022/11/27 11:40:26;;;;;;;10.80;1.95;;;13.20;99.90;;;;;;5014902;28;20042;-81
2022/11/27 11:43:05;;;;;;;8.52;2.00;;;13.30;99.90;;;;;;5013924;28;20053;-82
2022/11/27 11:45:42;;;;;;;10.57;2.20;;;13.20;99.90;;;;;;5014620;28;20054;-82
2022/11/27 11:48:26;;;;;;;8.38;2.03;;;13.30;99.90;;;;;;5000326;28;20061;-81
2022/11/27 11:51:17;;;;;;;7.28;1.80;;;13.10;99.90;;;;;;5000429;28;20046;-81
2022/11/27 11:54:07;;;;;;;13.27;2.00;;;13.10;99.90;;;;;;5018564;28;20056;-82
2022/11/27 11:56:40;;;;;;;11.88;1.92;;;13.20;99.90;;;;;;5017566;28;20042;-80
2022/11/27 11:59:30;;;;;;;11.90;2.15;;;13.10;99.90;;;;;;5018275;28;20065;-81
2022/11/27 12:02:34;;;;;;;10.02;2.00;;;13.20;99.90;;;;;;5018562;28;20042;-79
2022/11/27 12:05:10;;;;;;;16.88;2.28;;;13.20;99.90;;;;;;5018200;28;20045;-81
2022/11/27 12:07:53;;;;;;;11.10;1.80;;;13.20;99.90;;;;;;5018503;28;20058;-79
2022/11/27 12:11:04;;;;;;;8.27;1.85;;;13.20;99.90;;;;;;5000275;28;20057;-81
2022/11/27 12:14:04;;;;;;;8.45;1.73;;;13.30;99.90;;;;;;5018239;28;20465;-83
2022/11/27 12:16:51;;;;;;;8.60;1.75;;;13.30;99.90;;;;;;5016977;28;20046;-83
2022/11/27 12:19:44;;;;;;;9.60;1.83;;;13.30;99.90;;;;;;4984460;28;20145;-79
2022/11/27 12:22:21;;;;;;;10.60;1.88;;;13.30;99.90;;;;;;5017785;28;20045;-82
2022/11/27 12:25:02;;;;;;;12.82;2.10;;;13.40;99.90;;;;;;4999628;28;20046;-80
2022/11/27 12:28:00;;;;;;;11.82;2.20;;;13.40;99.90;;;;;;5000221;28;20054;-82
2022/11/27 12:31:02;;;;;;;16.52;2.58;;;13.40;99.90;;;;;;4999489;28;20461;-82
2022/11/27 12:34:05;;;;;;;14.82;2.63;;;13.40;99.90;;;;;;5017305;28;20054;-81
2022/11/27 12:36:53;;;;;;;13.50;2.53;;;13.50;99.90;;;;;;5015650;28;20049;-82
2022/11/27 12:39:24;;;;;;;12.77;2.63;;;13.50;99.90;;;;;;5017112;28;20381;-80
2022/11/27 12:42:16;;;;;;;14.10;2.55;;;13.50;99.90;;;;;;5017208;28;20050;-78
2022/11/27 12:45:20;;;;;;;15.48;2.75;;;13.60;99.90;;;;;;5016169;28;20042;-81
2022/11/27 12:47:55;;;;;;;10.27;2.22;;;13.50;99.90;;;;;;5000195;28;20362;-80
2022/11/27 12:50:52;;;;;;;14.90;2.50;;;13.60;99.90;;;;;;5015841;28;20053;-80
2022/11/27 12:53:41;;;;;;;16.27;2.38;;;13.60;99.90;;;;;;5017172;28;20046;-79
2022/11/27 12:56:33;;;;;;;14.15;2.28;;;13.70;99.90;;;;;;5015105;28;20057;-79
2022/11/27 12:59:03;;;;;;;16.17;2.80;;;13.70;99.90;;;;;;5016627;28;20065;-81
2022/11/27 13:01:40;;;;;;;18.08;2.97;;;13.70;99.90;;;;;;5016934;28;20381;-80
2022/11/27 13:04:29;;;;;;;8.85;2.47;;;13.70;99.90;;;;;;4998775;28;20473;-81
2022/11/27 13:07:23;;;;;;;13.30;2.60;;;13.70;99.90;;;;;;5001480;28;20473;-83
2022/11/27 13:10:32;;;;;;;12.73;2.40;;;13.90;99.90;;;;;;5018598;28;20358;-80
2022/11/27 13:13:18;;;;;;;22.20;2.83;;;13.80;99.90;;;;;;5000310;28;20053;-82
2022/11/27 13:16:17;;;;;;;20.70;3.33;;;13.70;99.90;;;;;;5004925;28;20050;-83
2022/11/27 13:19:04;;;;;;;18.98;3.08;;;13.70;99.90;;;;;;5002575;28;20050;-81
2022/11/27 13:21:38;;;;;;;18.73;2.95;;;13.60;99.90;;;;;;5001023;28;20049;-79
2022/11/27 13:24:11;;;;;;;14.68;3.00;;;13.60;99.90;;;;;;4999157;28;20045;-82
2022/11/27 13:26:47;;;;;;;21.10;3.30;;;13.60;99.90;;;;;;4984194;28;20054;-79